createdAt,value
2018-09-09T00:02:11.736Z,97027.70
2018-09-09T00:04:38.935Z,97023.48
2018-09-09T00:08:30.720Z,97024.10
2018-09-09T00:10:57.963Z,97023.41
2018-09-09T00:13:25.197Z,97017.41
2018-09-09T00:15:52.403Z,97024.22
2018-09-09T00:18:19.673Z,97020.94
2018-09-09T00:20:46.856Z,97023.34
2018-09-09T00:23:14.103Z,97018.30
2018-09-09T00:25:41.294Z,97012.88
2018-09-09T00:28:08.449Z,97015.31
2018-09-09T00:30:35.676Z,97013.34
2018-09-09T00:33:02.901Z,97011.76
2018-09-09T00:35:30.117Z,97015.46
2018-09-09T00:37:57.377Z,97020.18
2018-09-09T00:40:24.648Z,97024.59
2018-09-09T00:42:51.938Z,97021.52
2018-09-09T00:45:19.145Z,97019.27
2018-09-09T00:47:46.432Z,97021.73
2018-09-09T00:50:19.458Z,97017.47
2018-09-09T00:52:52.429Z,97015.28
2018-09-09T00:55:19.646Z,97017.31
2018-09-09T00:57:46.863Z,97021.81
2018-09-09T01:00:16.938Z,97020.66
2018-09-09T01:02:44.158Z,97022.55
2018-09-09T01:05:11.431Z,97021.05
2018-09-09T01:07:38.693Z,97015.34
2018-09-09T01:10:05.896Z,97017.84
2018-09-09T01:12:33.144Z,97013.40
2018-09-09T01:15:00.296Z,97016.02
2018-09-09T01:17:27.565Z,97017.69
2018-09-09T01:19:54.794Z,97028.13
2018-09-09T01:22:21.965Z,97022.63
2018-09-09T01:24:49.155Z,97018.43
2018-09-09T01:27:16.412Z,97021.98
2018-09-09T01:29:43.634Z,97017.61
2018-09-09T01:32:10.878Z,97017.70
2018-09-09T01:34:38.097Z,97024.98
2018-09-09T01:37:05.361Z,97026.79
2018-09-09T01:39:32.600Z,97025.58
2018-09-09T01:41:59.787Z,97032.02
2018-09-09T01:44:27.034Z,97028.47
2018-09-09T01:46:54.313Z,97033.25
2018-09-09T01:49:21.529Z,97030.09
2018-09-09T01:51:48.760Z,97026.73
2018-09-09T01:54:16.003Z,97032.85
2018-09-09T01:56:43.179Z,97029.88
2018-09-09T01:59:10.444Z,97025.52
2018-09-09T02:01:37.661Z,97029.73
2018-09-09T02:04:04.960Z,97027.10
2018-09-09T02:06:32.184Z,97023.91
2018-09-09T02:08:59.392Z,97022.96
2018-09-09T02:11:26.615Z,97022.30
2018-09-09T02:13:53.888Z,97025.41
2018-09-09T02:16:21.097Z,97026.42
2018-09-09T02:18:48.321Z,97027.84
2018-09-09T02:21:15.560Z,97028.22
2018-09-09T02:26:22.423Z,97028.95
2018-09-09T02:28:49.645Z,97032.42
2018-09-09T02:31:16.805Z,97034.39
2018-09-09T02:33:44.102Z,97042.23
2018-09-09T02:36:11.580Z,97037.86
2018-09-09T02:38:38.860Z,97046.06
2018-09-09T02:41:06.017Z,97042.81
2018-09-09T02:43:33.234Z,97041.14
2018-09-09T02:46:00.488Z,97040.48
2018-09-09T02:48:27.697Z,97037.79
2018-09-09T02:50:54.880Z,97030.21
2018-09-09T02:53:22.107Z,97036.08
2018-09-09T02:55:49.373Z,97034.70
2018-09-09T02:58:16.638Z,97030.86
2018-09-09T03:00:44.024Z,97033.95
2018-09-09T03:03:11.265Z,97035.18
2018-09-09T03:05:38.662Z,97037.67
2018-09-09T03:08:06.373Z,97034.61
2018-09-09T03:10:33.670Z,97019.69
2018-09-09T03:13:01.030Z,97022.95
2018-09-09T03:15:28.312Z,97019.69
2018-09-09T03:17:55.518Z,97020.27
2018-09-09T03:20:22.787Z,97021.56
2018-09-09T03:22:50.022Z,97020.72
2018-09-09T03:25:17.198Z,97012.72
2018-09-09T03:27:44.426Z,97020.27
2018-09-09T03:30:11.662Z,97019.13
2018-09-09T03:32:38.937Z,97024.55
2018-09-09T03:35:06.218Z,97029.97
2018-09-09T03:37:33.399Z,97033.49
2018-09-09T03:40:00.641Z,97031.91
2018-09-09T03:42:27.880Z,97029.58
2018-09-09T03:44:55.095Z,97029.18
2018-09-09T03:47:22.346Z,97024.91
2018-09-09T03:49:49.594Z,97025.84
2018-09-09T03:52:16.848Z,97033.38
2018-09-09T03:54:44.005Z,97029.86
2018-09-09T03:57:11.206Z,97042.78
2018-09-09T03:59:38.509Z,97036.63
2018-09-09T04:02:05.803Z,97035.30
2018-09-09T04:04:33.063Z,97039.41
2018-09-09T04:07:00.305Z,97035.13
2018-09-09T04:09:27.535Z,97037.19
2018-09-09T04:11:54.784Z,97034.58
2018-09-09T04:14:21.953Z,97032.26
2018-09-09T04:16:49.171Z,97034.58
2018-09-09T04:19:16.366Z,97040.00
2018-09-09T04:21:51.931Z,97048.27
2018-09-09T04:24:20.253Z,97048.11
2018-09-09T04:26:47.628Z,97052.45
2018-09-09T04:29:15.052Z,97056.67
2018-09-09T04:31:42.509Z,97055.55
2018-09-09T04:34:09.813Z,97052.75
2018-09-09T04:36:37.095Z,97056.50
2018-09-09T04:39:07.417Z,97057.94
2018-09-09T04:41:34.561Z,97049.09
2018-09-09T04:44:01.780Z,97048.91
2018-09-09T04:46:29.121Z,97052.72
2018-09-09T04:48:56.249Z,97056.08
2018-09-09T04:51:23.454Z,97055.27
2018-09-09T04:53:50.617Z,97052.01
2018-09-09T04:56:17.890Z,97048.18
2018-09-09T04:58:45.103Z,97056.09
2018-09-09T05:01:12.436Z,97061.41
2018-09-09T05:03:39.612Z,97066.25
2018-09-09T05:06:06.902Z,97066.50
2018-09-09T05:08:34.131Z,97065.95
2018-09-09T05:11:01.365Z,97065.55
2018-09-09T05:13:28.590Z,97066.22
2018-09-09T05:15:55.823Z,97072.14
2018-09-09T05:18:22.979Z,97069.04
2018-09-09T05:20:50.225Z,97068.84
2018-09-09T05:23:17.397Z,97069.42
2018-09-09T05:25:44.625Z,97074.28
2018-09-09T05:28:11.878Z,97076.63
2018-09-09T05:30:39.096Z,97078.41
2018-09-09T05:33:06.347Z,97082.03
2018-09-09T05:35:33.561Z,97083.05
2018-09-09T05:38:00.781Z,97083.05
2018-09-09T05:40:28.006Z,97082.70
2018-09-09T05:42:55.204Z,97081.59
2018-09-09T05:45:22.416Z,97078.22
2018-09-09T05:47:49.701Z,97077.27
2018-09-09T05:50:17.013Z,97073.00
2018-09-09T05:52:44.185Z,97081.30
2018-09-09T05:55:11.504Z,97087.27
2018-09-09T05:57:38.945Z,97085.57
2018-09-09T06:00:06.203Z,97089.19
2018-09-09T06:02:33.518Z,97089.55
2018-09-09T06:05:00.745Z,97092.38
2018-09-09T06:07:27.978Z,97088.67
2018-09-09T06:09:55.158Z,97087.68
2018-09-09T06:12:22.355Z,97087.21
2018-09-09T06:14:49.610Z,97095.45
2018-09-09T06:17:16.742Z,97098.92
2018-09-09T06:19:43.965Z,97104.09
2018-09-09T06:22:11.235Z,97102.45
2018-09-09T06:24:38.483Z,97101.73
2018-09-09T06:27:05.717Z,97103.99
2018-09-09T06:29:32.924Z,97105.45
2018-09-09T06:32:00.212Z,97107.30
2018-09-09T06:34:27.408Z,97097.37
2018-09-09T06:36:54.667Z,97102.34
2018-09-09T06:39:21.883Z,97100.23
2018-09-09T06:41:49.187Z,97106.81
2018-09-09T06:44:16.479Z,97100.01
2018-09-09T06:46:43.773Z,97098.27
2018-09-09T06:49:11.012Z,97093.32
2018-09-09T06:51:38.239Z,97088.80
2018-09-09T06:54:05.536Z,97081.81
2018-09-09T06:56:32.923Z,97089.43
2018-09-09T06:59:00.114Z,97093.27
2018-09-09T07:01:27.333Z,97088.19
2018-09-09T07:03:54.551Z,97091.09
2018-09-09T07:06:21.828Z,97093.02
2018-09-09T07:08:49.068Z,97088.77
2018-09-09T07:11:16.270Z,97089.17
2018-09-09T07:13:43.527Z,97092.03
2018-09-09T07:16:10.782Z,97090.25
2018-09-09T07:18:38.091Z,97095.90
2018-09-09T07:21:05.332Z,97096.27
2018-09-09T07:23:32.554Z,97094.69
2018-09-09T07:25:59.798Z,97093.34
2018-09-09T07:28:27.044Z,97092.70
2018-09-09T07:30:54.208Z,97093.45
2018-09-09T07:33:21.410Z,97094.28
2018-09-09T07:35:48.641Z,97096.11
2018-09-09T07:38:15.897Z,97101.13
2018-09-09T07:40:43.220Z,97103.79
2018-09-09T07:43:10.535Z,97103.98
2018-09-09T07:45:37.696Z,97101.56
2018-09-09T07:48:05.345Z,97097.18
2018-09-09T07:50:32.620Z,97097.66
2018-09-09T07:52:59.848Z,97104.36
2018-09-09T07:55:27.047Z,97098.52
2018-09-09T07:57:54.292Z,97093.44
2018-09-09T08:00:21.548Z,97093.95
2018-09-09T08:02:48.765Z,97099.78
2018-09-09T08:05:15.987Z,97097.48
2018-09-09T08:07:43.234Z,97093.21
2018-09-09T08:10:10.521Z,97094.86
2018-09-09T08:12:37.758Z,97101.52
2018-09-09T08:15:05.468Z,97098.55
2018-09-09T08:17:32.685Z,97108.62
2018-09-09T08:19:59.873Z,97107.45
2018-09-09T08:22:27.139Z,97115.52
2018-09-09T08:24:54.421Z,97119.98
2018-09-09T08:27:21.730Z,97123.86
2018-09-09T08:29:48.996Z,97121.16
2018-09-09T08:32:16.220Z,97122.81
2018-09-09T08:34:43.460Z,97124.23
2018-09-09T08:37:10.725Z,97121.46
2018-09-09T08:39:37.949Z,97122.33
2018-09-09T08:42:05.245Z,97124.58
2018-09-09T08:44:32.457Z,97120.95
2018-09-09T08:46:59.734Z,97121.03
2018-09-09T08:49:26.951Z,97116.66
2018-09-09T08:51:54.220Z,97115.19
2018-09-09T08:54:21.442Z,97114.55
2018-09-09T08:56:48.640Z,97093.16
2018-09-09T08:59:15.873Z,97114.95
2018-09-09T09:01:43.064Z,97112.65
2018-09-09T09:04:10.275Z,97113.66
2018-09-09T09:06:37.468Z,97116.34
2018-09-09T09:09:06.989Z,97108.70
2018-09-09T09:11:34.227Z,97112.38
2018-09-09T09:14:01.521Z,97104.84
2018-09-09T09:16:28.723Z,97112.66
2018-09-09T09:18:55.927Z,97108.02
2018-09-09T09:21:23.164Z,97112.02
2018-09-09T09:23:50.381Z,97114.17
2018-09-09T09:26:17.720Z,97108.36
2018-09-09T09:28:44.958Z,97109.36
2018-09-09T09:31:12.182Z,97109.53
2018-09-09T09:33:39.445Z,97112.22
2018-09-09T09:36:07.028Z,97110.67
2018-09-09T09:38:34.298Z,97119.33
2018-09-09T09:41:01.515Z,97111.93
2018-09-09T09:43:28.765Z,97111.22
2018-09-09T09:45:55.990Z,97107.22
2018-09-09T09:48:23.248Z,97101.11
2018-09-09T09:50:50.447Z,97108.36
2018-09-09T09:53:17.771Z,97106.05
2018-09-09T09:55:44.963Z,97099.31
2018-09-09T09:58:12.203Z,97105.77
2018-09-09T10:01:01.048Z,97101.93
2018-09-09T10:03:28.351Z,97101.30
2018-09-09T10:05:55.538Z,97104.36
2018-09-09T10:08:22.780Z,97097.98
2018-09-09T10:10:50.114Z,97094.39
2018-09-09T10:13:17.346Z,97097.13
2018-09-09T10:15:44.585Z,97092.83
2018-09-09T10:18:11.837Z,97091.13
2018-09-09T10:20:39.144Z,97085.44
2018-09-09T10:23:06.473Z,97086.83
2018-09-09T10:25:33.727Z,97082.80
2018-09-09T10:28:00.937Z,97083.89
2018-09-09T10:30:28.181Z,97084.82
2018-09-09T10:32:55.933Z,97082.73
2018-09-09T10:35:23.536Z,97085.48
2018-09-09T10:37:50.774Z,97087.23
2018-09-09T10:40:18.120Z,97080.44
2018-09-09T10:42:45.287Z,97084.00
2018-09-09T10:45:12.575Z,97083.56
2018-09-09T10:47:39.882Z,97082.46
2018-09-09T10:50:07.202Z,97076.51
2018-09-09T10:52:34.430Z,97083.66
2018-09-09T10:55:01.783Z,97080.95
2018-09-09T10:57:29.053Z,97083.36
2018-09-09T10:59:56.413Z,97085.48
2018-09-09T11:02:24.066Z,97083.00
2018-09-09T11:04:51.403Z,97085.06
2018-09-09T11:07:18.960Z,97077.38
2018-09-09T11:09:46.207Z,97075.63
2018-09-09T11:12:13.472Z,97071.47
2018-09-09T11:14:40.777Z,97065.52
2018-09-09T11:17:07.977Z,97062.06
2018-09-09T11:19:35.294Z,97068.47
2018-09-09T11:22:02.535Z,97068.15
2018-09-09T11:24:29.857Z,97068.09
2018-09-09T11:26:56.997Z,97066.25
2018-09-09T11:29:24.243Z,97053.81
2018-09-09T11:31:51.505Z,97049.59
2018-09-09T11:34:18.745Z,97056.81
2018-09-09T11:36:46.068Z,97050.06
2018-09-09T11:39:13.311Z,97053.05
2018-09-09T11:41:42.287Z,97050.48
2018-09-09T11:44:09.638Z,97056.98
2018-09-09T11:46:36.980Z,97049.27
2018-09-09T11:49:04.201Z,97047.34
2018-09-09T11:51:31.836Z,97051.25
2018-09-09T11:53:59.114Z,97055.77
2018-09-09T11:56:26.753Z,97053.31
2018-09-09T11:58:54.211Z,97046.56
2018-09-09T12:01:21.551Z,97045.94
2018-09-09T12:03:48.846Z,97045.46
2018-09-09T12:06:16.170Z,97040.19
2018-09-09T12:08:43.431Z,97040.80
2018-09-09T12:11:10.667Z,97045.18
2018-09-09T12:13:37.973Z,97047.39
2018-09-09T12:16:05.263Z,97047.19
2018-09-09T12:18:32.566Z,97045.23
2018-09-09T12:20:59.939Z,97047.98
2018-09-09T12:23:29.141Z,97044.89
2018-09-09T12:25:56.408Z,97041.67
2018-09-09T12:28:23.664Z,97037.47
2018-09-09T12:30:50.915Z,97033.62
2018-09-09T12:33:18.216Z,97030.83
2018-09-09T12:35:45.563Z,97033.17
2018-09-09T12:38:12.799Z,97029.97
2018-09-09T12:40:40.038Z,97023.48
2018-09-09T12:43:13.047Z,97034.36
2018-09-09T12:46:48.874Z,97025.44
2018-09-09T12:49:18.769Z,97023.27
2018-09-09T12:51:47.595Z,97020.98
2018-09-09T12:54:14.836Z,97024.46
2018-09-09T12:56:42.138Z,97024.17
2018-09-09T12:59:09.401Z,97021.63
2018-09-09T13:01:36.648Z,97019.36
2018-09-09T13:04:03.938Z,97017.61
2018-09-09T13:06:31.135Z,97018.88
2018-09-09T13:08:58.412Z,97019.34
2018-09-09T13:11:25.974Z,97023.69
2018-09-09T13:13:53.256Z,97020.78
2018-09-09T13:16:20.489Z,97021.89
2018-09-09T13:18:47.789Z,97018.83
2018-09-09T13:21:14.976Z,97011.27
2018-09-09T13:23:42.296Z,97017.27
2018-09-09T13:26:09.573Z,97015.23
2018-09-09T13:28:36.816Z,97015.66
2018-09-09T13:31:04.145Z,97013.16
2018-09-09T13:33:31.416Z,97018.84
2018-09-09T13:36:00.157Z,97018.28
2018-09-09T13:38:27.431Z,97016.27
2018-09-09T13:40:54.704Z,97008.52
2018-09-09T13:43:22.034Z,96999.60
2018-09-09T13:45:49.334Z,97004.83
2018-09-09T13:48:16.760Z,97007.36
2018-09-09T13:50:43.956Z,97001.41
2018-09-09T13:53:11.242Z,97003.00
2018-09-09T13:55:38.470Z,96994.38
2018-09-09T13:58:05.697Z,97000.39
2018-09-09T14:00:32.978Z,97002.12
2018-09-09T14:03:00.282Z,96997.39
2018-09-09T14:05:27.555Z,96990.87
2018-09-09T14:07:54.749Z,96989.78
2018-09-09T14:10:22.056Z,96993.61
2018-09-09T14:12:49.276Z,96996.64
2018-09-09T14:15:16.516Z,96988.88
2018-09-09T14:17:43.697Z,96986.19
2018-09-09T14:20:10.950Z,96984.84
2018-09-09T14:22:38.423Z,96987.23
2018-09-09T14:25:05.724Z,96980.11
2018-09-09T14:27:32.930Z,96980.92
2018-09-09T14:30:00.160Z,96981.91
2018-09-09T14:32:27.437Z,96980.73
2018-09-09T14:34:54.804Z,96980.25
2018-09-09T14:37:22.076Z,96986.50
2018-09-09T14:39:49.317Z,96984.39
2018-09-09T14:42:16.566Z,96989.69
2018-09-09T14:44:43.847Z,96989.33
2018-09-09T14:47:11.040Z,96991.88
2018-09-09T14:49:38.389Z,96990.55
2018-09-09T14:52:05.672Z,96984.27
2018-09-09T14:54:33.007Z,96992.75
2018-09-09T14:57:00.251Z,96986.39
2018-09-09T14:59:27.495Z,96977.89
2018-09-09T15:01:54.666Z,96982.16
2018-09-09T15:04:21.883Z,96985.84
2018-09-09T15:06:49.156Z,96982.19
2018-09-09T15:09:16.387Z,96984.77
2018-09-09T15:11:43.625Z,96986.20
2018-09-09T15:14:10.911Z,96977.45
2018-09-09T15:16:38.207Z,96985.55
2018-09-09T15:19:05.457Z,96974.67
2018-09-09T15:21:32.687Z,96982.66
2018-09-09T15:23:59.975Z,96972.47
2018-09-09T15:26:27.277Z,96980.24
2018-09-09T15:28:54.580Z,96976.97
2018-09-09T15:31:21.857Z,96977.38
2018-09-09T15:33:49.069Z,96977.69
2018-09-09T15:36:16.582Z,96970.53
2018-09-09T15:38:43.924Z,96972.52
2018-09-09T15:41:11.093Z,96972.92
2018-09-09T15:43:38.369Z,96973.87
2018-09-09T15:46:05.664Z,96973.33
2018-09-09T15:48:32.964Z,96968.56
2018-09-09T15:51:00.229Z,96970.84
2018-09-09T15:53:27.498Z,96964.99
2018-09-09T15:55:54.834Z,96973.02
2018-09-09T15:58:22.104Z,96976.25
2018-09-09T16:00:49.380Z,96980.77
2018-09-09T16:03:16.600Z,96975.71
2018-09-09T16:05:43.884Z,96974.83
2018-09-09T16:08:11.179Z,96972.97
2018-09-09T16:10:38.403Z,96979.36
2018-09-09T16:13:05.644Z,96981.05
2018-09-09T16:15:32.890Z,96982.23
2018-09-09T16:18:00.149Z,96983.22
2018-09-09T16:20:27.383Z,96983.08
2018-09-09T16:22:54.643Z,96980.41
2018-09-09T16:25:21.871Z,96979.97
2018-09-09T16:27:49.085Z,96984.52
2018-09-09T16:30:16.275Z,96990.61
2018-09-09T16:32:43.553Z,96994.34
2018-09-09T16:35:10.746Z,96989.87
2018-09-09T16:37:37.978Z,96994.52
2018-09-09T16:40:05.297Z,96990.77
2018-09-09T16:42:32.647Z,96989.83
2018-09-09T16:44:59.943Z,96988.20
2018-09-09T16:47:27.280Z,96986.16
2018-09-09T16:49:54.566Z,96995.30
2018-09-09T16:52:21.908Z,96988.78
2018-09-09T16:54:50.225Z,96992.08
2018-09-09T16:57:17.451Z,96991.56
2018-09-09T16:59:44.706Z,96989.72
2018-09-09T17:02:11.945Z,96995.36
2018-09-09T17:04:39.186Z,96991.65
2018-09-09T17:07:06.417Z,96993.39
2018-09-09T17:09:33.740Z,96995.90
2018-09-09T17:12:01.003Z,96995.56
2018-09-09T17:14:28.241Z,96995.52
2018-09-09T17:16:55.401Z,96997.95
2018-09-09T17:19:22.737Z,96995.08
2018-09-09T17:21:50.045Z,96993.61
2018-09-09T17:24:17.198Z,96996.77
2018-09-09T17:26:44.435Z,97000.44
2018-09-09T17:29:11.601Z,96998.78
2018-09-09T17:31:38.873Z,97005.61
2018-09-09T17:34:06.105Z,97002.38
2018-09-09T17:36:33.378Z,96999.20
2018-09-09T17:39:00.608Z,97000.28
2018-09-09T17:41:27.888Z,97002.39
2018-09-09T17:43:55.266Z,96999.60
2018-09-09T17:46:22.466Z,97004.31
2018-09-09T17:48:49.789Z,97011.17
2018-09-09T17:51:17.085Z,97016.22
2018-09-09T17:53:44.318Z,97009.27
2018-09-09T17:56:11.546Z,97018.90
2018-09-09T17:58:38.785Z,97021.19
2018-09-09T18:01:06.032Z,97020.18
2018-09-09T18:03:33.315Z,97025.78
2018-09-09T18:06:00.630Z,97020.77
2018-09-09T18:08:27.851Z,97026.75
2018-09-09T18:10:55.126Z,97027.66
2018-09-09T18:13:22.311Z,97028.42
2018-09-09T18:15:49.626Z,97030.16
2018-09-09T18:18:16.835Z,97033.96
2018-09-09T18:20:44.132Z,97028.25
2018-09-09T18:23:11.449Z,97029.67
2018-09-09T18:25:39.763Z,97033.32
2018-09-09T18:28:07.078Z,97032.48
2018-09-09T18:30:34.304Z,97037.75
2018-09-09T18:33:01.601Z,97039.99
2018-09-09T18:35:29.114Z,97046.24
2018-09-09T18:37:56.433Z,97044.47
2018-09-09T18:40:23.740Z,97047.52
2018-09-09T18:42:51.026Z,97058.06
2018-09-09T18:45:18.295Z,97059.23
2018-09-09T18:47:45.731Z,97064.35
2018-09-09T18:50:12.860Z,97063.04
2018-09-09T18:52:40.166Z,97062.12
2018-09-09T18:55:07.393Z,97065.13
2018-09-09T18:57:34.645Z,97073.47
2018-09-09T19:00:01.991Z,97068.26
2018-09-09T19:02:29.261Z,97069.23
2018-09-09T19:04:56.548Z,97073.83
2018-09-09T19:07:23.788Z,97064.13
2018-09-09T19:09:50.976Z,97072.11
2018-09-09T19:12:18.296Z,97074.22
2018-09-09T19:14:45.514Z,97078.21
2018-09-09T19:17:12.729Z,97088.11
2018-09-09T19:19:39.966Z,97087.56
2018-09-09T19:22:07.204Z,97088.89
2018-09-09T19:24:34.420Z,97087.89
2018-09-09T19:27:01.659Z,97090.98
2018-09-09T19:29:28.950Z,97092.30
2018-09-09T19:31:56.181Z,97091.84
2018-09-09T19:34:23.590Z,97086.23
2018-09-09T19:36:50.837Z,97093.68
2018-09-09T19:39:18.104Z,97102.88
2018-09-09T19:41:45.338Z,97096.67
2018-09-09T19:44:12.681Z,97090.91
2018-09-09T19:46:39.823Z,97099.89
2018-09-09T19:49:07.138Z,97103.48
2018-09-09T19:51:34.827Z,97103.42
2018-09-09T19:54:02.029Z,97100.98
2018-09-09T19:56:29.265Z,97106.68
2018-09-09T19:58:56.522Z,97110.63
2018-09-09T20:01:23.785Z,97059.92
2018-09-09T20:03:50.959Z,97118.44
2018-09-09T20:06:18.220Z,97113.16
2018-09-09T20:08:45.397Z,97113.68
2018-09-09T20:11:12.684Z,97112.55
2018-09-09T20:13:39.941Z,97105.16
2018-09-09T20:16:07.173Z,97121.72
2018-09-09T20:18:34.486Z,97120.05
2018-09-09T20:21:01.699Z,97118.00
2018-09-09T20:23:28.942Z,97118.19
2018-09-09T20:25:56.220Z,97118.64
2018-09-09T20:28:23.432Z,97112.89
2018-09-09T20:30:50.707Z,97117.09
2018-09-09T20:33:17.970Z,97122.77
2018-09-09T20:35:45.309Z,97126.84
2018-09-09T20:38:12.583Z,97126.02
2018-09-09T20:40:39.801Z,97125.84
2018-09-09T20:43:07.057Z,97126.53
2018-09-09T20:45:34.337Z,97129.95
2018-09-09T20:48:01.611Z,97136.44
2018-09-09T20:50:28.924Z,97130.34
2018-09-09T20:52:56.154Z,97136.22
2018-09-09T20:55:23.392Z,97132.69
2018-09-09T20:57:50.613Z,97132.49
2018-09-09T21:00:17.900Z,97135.52
2018-09-09T21:02:45.121Z,97131.28
2018-09-09T21:05:12.362Z,97139.15
2018-09-09T21:07:39.628Z,97134.76
2018-09-09T21:10:06.870Z,97138.13
2018-09-09T21:12:34.223Z,97136.45
2018-09-09T21:15:02.948Z,97142.83
2018-09-09T21:17:30.454Z,97138.73
2018-09-09T21:19:57.703Z,97148.00
2018-09-09T21:22:24.901Z,97149.30
2018-09-09T21:24:52.065Z,97145.73
2018-09-09T21:27:19.331Z,97146.39
2018-09-09T21:29:46.544Z,97147.70
2018-09-09T21:32:13.848Z,97147.06
2018-09-09T21:34:41.179Z,97154.73
2018-09-09T21:37:08.362Z,97155.22
2018-09-09T21:39:35.664Z,97154.98
2018-09-09T21:42:02.899Z,97149.97
2018-09-09T21:44:30.092Z,97143.74
2018-09-09T21:46:57.373Z,97142.91
2018-09-09T21:49:24.670Z,97140.29
2018-09-09T21:51:51.989Z,97145.05
2018-09-09T21:54:19.157Z,97141.48
2018-09-09T21:56:46.375Z,97141.25
2018-09-09T21:59:13.642Z,97150.34
2018-09-09T22:01:46.549Z,97150.70
2018-09-09T22:04:13.741Z,97151.05
2018-09-09T22:06:40.949Z,97147.84
2018-09-09T22:09:08.735Z,97152.00
2018-09-09T22:11:36.321Z,97153.55
2018-09-09T22:14:03.645Z,97150.28
2018-09-09T22:16:30.949Z,97149.36
2018-09-09T22:18:58.157Z,97149.11
2018-09-09T22:21:25.446Z,97153.88
2018-09-09T22:23:52.641Z,97151.59
2018-09-09T22:26:19.940Z,97153.52
2018-09-09T22:28:47.635Z,97154.72
2018-09-09T22:31:14.851Z,97155.33
2018-09-09T22:33:42.049Z,97153.84
2018-09-09T22:36:09.618Z,97148.33
2018-09-09T22:38:36.963Z,97154.64
2018-09-09T22:41:04.265Z,97149.13
2018-09-09T22:43:31.490Z,97147.06
2018-09-09T22:45:59.176Z,97139.43
2018-09-09T22:48:26.957Z,97137.00
2018-09-09T22:50:54.169Z,97140.02
2018-09-09T22:53:21.392Z,97135.47
2018-09-09T22:55:48.698Z,97139.77
2018-09-09T22:58:15.930Z,97141.53
2018-09-09T23:00:43.232Z,97146.19
2018-09-09T23:03:10.503Z,97144.70
2018-09-09T23:05:37.824Z,97143.47
2018-09-09T23:08:05.010Z,97143.47
2018-09-09T23:10:32.268Z,97137.06
2018-09-09T23:12:59.491Z,97136.04
2018-09-09T23:15:27.635Z,97138.14
2018-09-09T23:17:55.124Z,97135.91
2018-09-09T23:20:22.392Z,97138.65
2018-09-09T23:22:50.249Z,97133.73
2018-09-09T23:25:17.479Z,97129.29
2018-09-09T23:27:44.807Z,97136.68
2018-09-09T23:30:12.085Z,97133.46
2018-09-09T23:32:39.363Z,97127.00
2018-09-09T23:35:06.668Z,97125.16
2018-09-09T23:37:33.929Z,97122.95
2018-09-09T23:40:01.169Z,97119.57
2018-09-09T23:42:28.442Z,97127.19
2018-09-09T23:44:55.663Z,97121.02
2018-09-09T23:47:22.918Z,97122.87
2018-09-09T23:49:50.099Z,97118.19
2018-09-09T23:52:17.351Z,97118.88
2018-09-09T23:54:44.799Z,97119.91
2018-09-09T23:57:12.102Z,97118.39
2018-09-09T23:59:39.342Z,97115.28
